Weather at Livermore Municipal Airport

Public forecast

Using degrees Fahrenheit for public forecast. Weather courtesy of forecast.io.

Current aviation weather report (METAR) for Livermore Municipal Airport

Retrieved 2021/07/24 01:53 UTC (10 minutes ago):

KLVK 240153Z 28011KT 10SM CLR 29/06 A2993 RMK AO2 SLP132 T02890061

Aviation forecast (TAF) for Livermore Municipal Airport

Retrieved 2021-07-24 00:22 UTC (2 hours ago):

TAF KLVK 232320Z 2400/2424 29013KT P6SM FEW200 FM240400 32007KT P6SM FEW200 FM240800 VRB05KT P6SM FEW200 FM242000 29010KT P6SM SKC